x

South Brooks (46132) Wave Buoy

6:00am - Wed 6th May 2015 All times are PDT. -7 hours from GMT.

  • Sig Wave height 5.9ft
  • Peak Period 9s
  • Wind
    18mph, 22mph gusts
  • Sea Temp 51°f
  • 空気 Temp 50°f
  • Sea Pressure 1021mb
  • South Brooks
  • South Brooks

More Historic Weather Station data

Upgrade to MSW Pro to gain access to the past 30 days of data for over 8000 Wavebouys and Weather Stations around the globe.

Join Pro

Comparision Forecast

View Surf forecast
   
Wed 05/06 6:00am 6ft 9s 18 22 mph 1021mb 51f 50f
5:00am 6ft 9s 20 25 mph 1020.6mb 52f 50f
4:00am 6ft 8s 18 20 mph 1020.9mb 52f 50f
3:00am 6ft 8s 16 18 mph 1021mb 51f 50f
2:00am 6ft 9s 16 20 mph 1020.9mb 51f 50f
1:00am 6ft 8s 18 22 mph 1020.8mb 52f 50f
12:00am 6ft 10s 16 18 mph 1020.9mb 52f 50f
Tue 05/05 11:00pm 6ft 8s 16 18 mph 1020.9mb 52f 50f
10:00pm 6ft 11s 13 16 mph 1020.8mb 52f 51f
9:00pm 6ft 10s 13 18 mph 1020.5mb 52f 51f
8:00pm 6ft 11s 13 16 mph 1020.2mb 53f 51f
7:00pm 6.5ft 10s 11 13 mph 1019.6mb 54f 51f
6:00pm 6.5ft 11s 7 11 mph 1019.3mb 54f 51f
5:00pm 7.5ft 11s 4
mph
1018.9mb 52f 51f
4:00pm 7.5ft 20s 2 4 mph 1018.5mb 53f 51f
3:00pm 8ft 10s 2 4 mph 1018.1mb 53f 50f
2:00pm 8ft 11s 2 4 mph 1017.8mb 53f 50f
1:00pm 7.5ft 11s 2 4 mph 1017.3mb 52f 50f
12:00pm 7ft 10s 4 7 mph 1016.9mb 52f 49f
11:00am 7.5ft 20s 4 7 mph 1016.4mb 51f 48f
10:00am 7.5ft 11s 2 7 mph 1015.6mb 52f 49f
9:00am 7ft 10s  -  4 mph 1015.2mb 51f 50f
8:00am 7ft 12s 4
mph
1014.6mb 51f 48f
7:00am 7ft 11s 4 7 mph 1014mb 51f 48f
6:00am 8ft 12s 4 9 mph 1013.5mb 51f 47f
5:00am 8ft 12s 4 9 mph 1013.3mb 51f 46f
4:00am 8.5ft 12s 7 13 mph 1012.8mb 51f 49f
3:00am 9ft 12s  -  2 mph 1012.6mb 51f 49f
2:00am 9ft 12s 7 9 mph 1012.5mb 51f 49f
1:00am 9ft 13s 7 9 mph 1012.3mb 51f 49f
12:00am 9ft 12s 7 9 mph 1011.9mb 51f 49f
Mon 05/04 11:00pm 8ft 12s  -  4 mph 1011.7mb 51f 48f
10:00pm 7.5ft 13s 4 7 mph 1011.7mb 51f 49f
9:00pm 8ft 13s 7 9 mph 1011.3mb 51f 50f
8:00pm 8.5ft 12s 4 7 mph 1011.1mb 52f 49f
7:00pm 8ft 12s 11 13 mph 1010.9mb 52f 50f
6:00pm 9ft 13s 13
mph
1010.9mb 51f 51f
5:00pm 9ft 13s 13 18 mph 1010.4mb 51f 50f
4:00pm 8.5ft 14s 9 13 mph 1010.3mb 51f 49f
3:00pm 9ft 13s 13 16 mph 1010mb 51f 48f
2:00pm 9ft 14s 18 22 mph 1009.1mb 51f 49f
1:00pm 9ft 13s 20 22 mph 1008.3mb 51f 49f
12:00pm 8ft 14s 20 25 mph 1007.6mb 51f 49f
11:00am 8ft 14s 18 22 mph 1007.1mb 51f 48f
10:00am 8ft 14s 22 31 mph 1006.6mb 51f 49f
9:00am 6.5ft 15s 31 38 mph 1006.1mb 51f 49f
8:00am 5.5ft 15s 27 31 mph 1006.8mb 51f 50f
7:00am 4.5ft 15s 22 29 mph 1007.6mb 51f 51f
6:00am 4ft 16s 20 25 mph 1008.1mb 51f 50f
5:00am 3.5ft 23s 16 20 mph 1009.2mb 52f 50f
4:00am 3.5ft 17s 13 16 mph 1009.6mb 52f 50f
3:00am 3.5ft 23s 11 13 mph 1010.2mb 52f 49f
2:00am 3ft 23s 9 11 mph 1010.8mb 52f 49f
1:00am 3.5ft 10s 7 9 mph 1011.3mb 52f 49f
12:00am 3ft 18s 4 7 mph 1011.9mb 52f 49f
Sun 05/03 11:00pm 3.5ft 9s 7 9 mph 1012.5mb 52f 49f
10:00pm 3.5ft 8s 9 11 mph 1013.1mb 52f 49f
9:00pm 4ft 8s 9 11 mph 1013.5mb 52f 49f
8:00pm 3.5ft 8s 9
mph
1013.8mb 52f 49f
7:00pm 4.5ft 9s 9 11 mph 1014.2mb 52f 49f
6:00pm 4ft 10s 11 13 mph 1015mb 52f 49f
5:00pm 4.5ft 9s 11 13 mph 1015.5mb 52f 49f
4:00pm 4.5ft 10s 9 11 mph 1016.1mb 52f 49f
3:00pm 4.5ft 9s 9 13 mph 1016.6mb 52f 49f
2:00pm 5ft 9s 11 13 mph 1017.1mb 52f 49f
1:00pm 5ft 9s 11 13 mph 1017.3mb 52f 49f
12:00pm 5ft 10s 11 13 mph 1017.4mb 52f 49f
11:00am 5ft 10s 16 18 mph 1017.4mb 52f 49f
10:00am 5ft 10s 13 16 mph 1017.3mb 52f 49f
9:00am 6ft 10s 16 18 mph 1017.2mb 51f 49f
8:00am 6ft 11s 16 18 mph 1017mb 51f 49f
7:00am 6.5ft 11s 20 22 mph 1016.6mb 51f 48f
6:00am 7ft 10s 22 25 mph 1016.8mb 51f 49f
5:00am 7ft 10s 22 27 mph 1016.9mb 51f 49f
4:00am 7ft 11s 22 27 mph 1017.1mb 51f 49f
3:00am 8ft 10s 22 27 mph 1017.3mb 52f 49f
2:00am 8ft 12s 22 27 mph 1017.6mb 52f 49f
1:00am 8ft 10s 22 29 mph 1017.7mb 52f 49f
Sat 05/02 10:00pm 9ft 11s 25 29 mph 1018.6mb 52f 50f
9:00pm 8.5ft 10s 27 31 mph 1018.5mb 52f 50f
8:00pm  -   -  29
mph
1018.5mb - 50f
7:00pm 8.5ft 10s 25 29 mph 1019mb 52f 50f
6:00pm 8.5ft 11s 25 29 mph 1019.4mb 52f 50f
5:00pm 8.5ft 10s 25 29 mph 1019.9mb 52f 50f
4:00pm 8.5ft 11s 25 29 mph 1020.3mb 52f 50f
3:00pm 8ft 11s 25 29 mph 1020.9mb 51f 50f